Time;durP1;ratioP1;P1;durP2;ratioP2;P2;SDS_P1;SDS_P2;PMS_P1;PMS_P2;Temp;Humidity;BMP_temperature;BMP_pressure;BME280_temperature;BME280_humidity;BME280_pressure;Samples;Min_cycle;Max_cycle;Signal;HPM_P1;HPM_P2
2020/12/04 00:01:01;;;;;;;13.88;10.70;;;4.80;92.00;;;;;;10450634;28;20480;-67
2020/12/04 00:06:03;;;;;;;14.27;10.68;;;4.80;92.10;;;;;;10449452;28;20132;-67
2020/12/04 00:11:04;;;;;;;15.43;10.73;;;4.90;92.10;;;;;;10450391;28;20127;-67
2020/12/04 00:16:07;;;;;;;15.45;10.40;;;4.80;92.10;;;;;;10448938;28;20107;-67
2020/12/04 00:21:08;;;;;;;15.10;10.82;;;4.80;92.10;;;;;;10424851;28;20068;-67
2020/12/04 00:26:09;;;;;;;14.15;11.27;;;4.80;92.00;;;;;;10450163;28;20053;-67
2020/12/04 00:31:11;;;;;;;14.30;11.00;;;4.90;91.90;;;;;;10429584;28;20047;-67
2020/12/04 00:36:13;;;;;;;13.65;10.40;;;4.80;92.30;;;;;;10433537;28;20239;-67
2020/12/04 00:41:14;;;;;;;15.13;10.63;;;4.70;92.20;;;;;;10450538;28;20045;-67
2020/12/04 00:46:16;;;;;;;12.60;10.60;;;4.80;92.00;;;;;;10448398;28;20484;-68
2020/12/04 00:51:18;;;;;;;14.35;11.48;;;4.90;92.20;;;;;;10449558;28;20436;-67
2020/12/04 00:56:21;;;;;;;14.43;11.07;;;4.80;92.50;;;;;;10450523;28;20140;-67
2020/12/04 01:01:23;;;;;;;15.20;11.13;;;4.70;92.80;;;;;;10459104;28;20140;-67
2020/12/04 01:06:24;;;;;;;16.10;11.90;;;4.80;92.70;;;;;;10458048;28;20131;-67
2020/12/04 01:11:27;;;;;;;14.45;11.25;;;4.70;92.70;;;;;;10458414;28;20198;-67
2020/12/04 01:16:28;;;;;;;17.20;11.95;;;4.80;92.80;;;;;;10457650;28;20136;-67
2020/12/04 01:21:29;;;;;;;15.88;11.63;;;4.90;92.70;;;;;;10456986;28;20137;-67
2020/12/04 01:26:31;;;;;;;15.50;11.10;;;4.80;92.50;;;;;;10456944;28;20102;-67
2020/12/04 01:31:32;;;;;;;14.13;10.60;;;4.80;92.80;;;;;;10455596;28;20052;-67
2020/12/04 01:36:34;;;;;;;16.48;11.85;;;4.80;92.70;;;;;;10457193;28;20053;-67
2020/12/04 01:41:36;;;;;;;16.80;12.00;;;4.80;92.80;;;;;;10456705;28;20091;-67
2020/12/04 01:46:38;;;;;;;15.57;11.45;;;4.70;93.20;;;;;;10456047;28;20224;-67
2020/12/04 01:51:39;;;;;;;13.90;10.85;;;4.70;93.20;;;;;;10457762;28;20135;-67
2020/12/04 01:56:41;;;;;;;15.25;11.35;;;4.80;93.30;;;;;;10457725;28;20136;-67
2020/12/04 02:01:44;;;;;;;16.60;11.50;;;4.90;93.20;;;;;;10455544;28;20503;-67
2020/12/04 02:07:04;;;;;;;15.52;11.45;;;4.80;93.20;;;;;;10456157;28;20509;-67
2020/12/04 02:12:07;;;;;;;14.13;10.63;;;4.90;93.10;;;;;;10453124;28;20461;-67
2020/12/04 02:17:09;;;;;;;15.43;11.52;;;5.00;93.10;;;;;;10450813;28;20056;-67
2020/12/04 02:22:12;;;;;;;19.33;12.65;;;4.90;92.90;;;;;;10420399;28;20073;-67
2020/12/04 02:27:14;;;;;;;15.32;11.75;;;5.00;93.00;;;;;;10455014;28;20102;-67
2020/12/04 02:32:16;;;;;;;15.77;11.18;;;5.00;92.90;;;;;;10454402;28;20084;-67
2020/12/04 02:37:17;;;;;;;15.90;12.23;;;4.90;93.10;;;;;;10454758;28;20080;-67
2020/12/04 02:42:18;;;;;;;15.23;11.55;;;4.80;93.40;;;;;;10454384;28;20190;-67
2020/12/04 02:47:24;;;;;;;16.23;12.50;;;4.90;93.50;;;;;;10455092;28;20072;-67
2020/12/04 02:52:26;;;;;;;15.55;12.07;;;5.00;93.80;;;;;;10454596;28;20053;-67
2020/12/04 02:57:27;;;;;;;19.17;12.55;;;5.00;93.70;;;;;;10453893;28;20044;-67
2020/12/04 03:02:29;;;;;;;16.23;11.95;;;5.00;94.30;;;;;;10454247;28;20943;-67
2020/12/04 03:07:30;;;;;;;17.48;12.60;;;5.00;94.80;;;;;;10453419;28;20080;-67
2020/12/04 03:12:34;;;;;;;16.95;12.65;;;5.00;95.10;;;;;;10454721;28;20072;-67
2020/12/04 03:17:36;;;;;;;18.38;12.23;;;5.00;95.30;;;;;;10453152;28;20114;-67
2020/12/04 03:22:38;;;;;;;17.65;13.20;;;5.10;95.30;;;;;;10453566;28;20053;-67
2020/12/04 03:27:39;;;;;;;17.05;12.15;;;5.00;95.50;;;;;;10469117;28;20412;-67
2020/12/04 03:32:41;;;;;;;18.10;12.20;;;5.00;95.60;;;;;;10452539;28;20516;-67
2020/12/04 03:37:42;;;;;;;17.33;12.82;;;5.00;95.70;;;;;;10452156;28;20079;-67
2020/12/04 03:42:44;;;;;;;15.27;11.27;;;4.90;95.90;;;;;;10453696;28;20049;-67
2020/12/04 03:47:45;;;;;;;16.50;11.43;;;5.10;95.80;;;;;;10451102;28;20394;-67
2020/12/04 03:52:46;;;;;;;14.98;11.52;;;5.20;95.80;;;;;;10453041;28;20057;-67
2020/12/04 03:57:48;;;;;;;16.45;12.07;;;5.10;96.00;;;;;;10452895;28;20111;-68
2020/12/04 04:02:52;;;;;;;16.02;11.57;;;5.10;96.00;;;;;;10452585;28;20045;-67
2020/12/04 04:07:54;;;;;;;14.90;10.90;;;5.10;96.30;;;;;;10453641;28;20053;-67
2020/12/04 04:12:56;;;;;;;14.70;10.30;;;5.20;96.10;;;;;;10452557;28;20127;-67
2020/12/04 04:17:59;;;;;;;15.65;10.70;;;5.20;96.10;;;;;;10452425;28;20049;-67
2020/12/04 04:23:01;;;;;;;15.02;11.07;;;5.20;96.20;;;;;;10452122;28;20079;-67
2020/12/04 04:28:02;;;;;;;14.13;10.15;;;5.30;96.00;;;;;;10451875;28;20049;-67
2020/12/04 04:33:04;;;;;;;14.15;10.40;;;5.30;96.00;;;;;;10454123;28;20049;-67
2020/12/04 04:38:06;;;;;;;14.63;10.88;;;5.40;96.10;;;;;;10460453;28;20118;-67
2020/12/04 04:43:09;;;;;;;15.45;10.55;;;5.40;95.90;;;;;;10460841;28;20080;-67
2020/12/04 04:48:30;;;;;;;12.88;10.13;;;5.40;96.10;;;;;;10459945;28;20076;-67
2020/12/04 04:53:32;;;;;;;13.25;9.85;;;5.50;96.10;;;;;;10459045;28;20461;-67
2020/12/04 04:58:34;;;;;;;13.52;9.82;;;5.60;96.00;;;;;;10459620;28;20099;-67
2020/12/04 05:03:35;;;;;;;13.52;9.55;;;5.70;95.80;;;;;;10458624;28;20386;-67
2020/12/04 05:08:36;;;;;;;13.52;9.55;;;5.70;96.10;;;;;;10459058;28;20071;-67
2020/12/04 05:13:38;;;;;;;12.45;8.80;;;5.60;96.40;;;;;;10459471;28;20053;-67
2020/12/04 05:18:39;;;;;;;12.20;9.10;;;5.70;96.50;;;;;;10458420;28;20049;-67
2020/12/04 05:23:53;;;;;;;12.45;9.50;;;5.90;96.70;;;;;;10458505;28;20045;-67
2020/12/04 05:28:54;;;;;;;15.65;9.73;;;5.90;96.80;;;;;;10459392;28;20045;-67
2020/12/04 05:33:57;;;;;;;13.65;10.48;;;5.80;96.80;;;;;;10458484;28;20148;-67
2020/12/04 05:38:58;;;;;;;16.42;11.57;;;5.80;97.40;;;;;;10457557;28;20053;-67
2020/12/04 05:44:00;;;;;;;14.95;10.88;;;5.80;97.70;;;;;;10456906;28;20072;-67
2020/12/04 05:49:08;;;;;;;14.27;10.55;;;5.80;97.70;;;;;;10457425;28;20076;-68
2020/12/04 05:54:10;;;;;;;13.07;10.07;;;5.80;97.80;;;;;;10456711;28;20049;-67
2020/12/04 05:59:14;;;;;;;11.70;8.80;;;5.80;97.80;;;;;;10457195;28;20098;-67
2020/12/04 06:04:18;;;;;;;11.95;8.68;;;5.80;98.00;;;;;;10455776;28;20053;-67
2020/12/04 06:09:21;;;;;;;11.82;7.90;;;5.90;98.20;;;;;;10456800;28;20052;-67
2020/12/04 06:14:23;;;;;;;11.35;8.30;;;5.90;97.90;;;;;;10457121;28;20111;-67
2020/12/04 06:19:29;;;;;;;11.57;8.30;;;5.90;98.20;;;;;;10456034;28;20523;-67
2020/12/04 06:24:32;;;;;;;11.00;7.95;;;6.00;98.40;;;;;;10456192;28;20111;-67
2020/12/04 06:29:53;;;;;;;10.60;7.57;;;6.00;98.00;;;;;;10456042;28;20521;-67
2020/12/04 06:34:55;;;;;;;10.00;7.40;;;6.00;97.90;;;;;;10430039;28;20049;-67
2020/12/04 06:40:22;;;;;;;10.35;7.57;;;6.00;98.00;;;;;;10442052;28;20065;-67
2020/12/04 06:45:44;;;;;;;9.15;7.05;;;6.10;97.90;;;;;;10455358;28;20129;-67
2020/12/04 06:50:48;;;;;;;10.48;7.65;;;6.10;97.80;;;;;;10454544;28;20460;-68
2020/12/04 06:55:50;;;;;;;9.68;7.15;;;6.10;97.80;;;;;;10453163;28;20049;-67
2020/12/04 07:00:56;;;;;;;11.45;7.20;;;6.10;97.70;;;;;;10453859;28;20528;-67
2020/12/04 07:05:57;;;;;;;9.63;7.00;;;6.00;97.80;;;;;;10453327;28;20468;-68
2020/12/04 07:11:01;;;;;;;10.88;7.45;;;6.00;98.00;;;;;;10449267;28;20396;-67
2020/12/04 07:16:02;;;;;;;9.77;7.05;;;6.10;98.00;;;;;;10450226;28;20055;-67
2020/12/04 07:21:04;;;;;;;9.23;7.45;;;6.20;97.60;;;;;;10450170;28;20098;-68
2020/12/04 07:26:16;;;;;;;9.32;6.45;;;6.20;97.50;;;;;;10450567;28;20099;-67
2020/12/04 07:31:21;;;;;;;10.80;6.80;;;6.30;97.50;;;;;;10449026;28;20077;-67
2020/12/04 07:36:24;;;;;;;10.50;7.30;;;6.30;97.40;;;;;;10451180;28;20083;-68
2020/12/04 07:41:38;;;;;;;9.82;6.80;;;6.30;97.30;;;;;;10428265;28;20052;-67
2020/12/04 07:46:40;;;;;;;11.07;7.50;;;6.30;97.10;;;;;;10452117;28;20135;-67
2020/12/04 07:51:50;;;;;;;11.27;7.30;;;6.40;97.00;;;;;;10451557;28;20148;-68
2020/12/04 07:56:57;;;;;;;9.80;7.03;;;6.40;96.80;;;;;;10451525;28;20084;-67
2020/12/04 08:02:00;;;;;;;12.68;7.10;;;6.60;96.60;;;;;;10451415;28;20444;-67
2020/12/04 08:07:12;;;;;;;10.45;6.93;;;6.60;96.50;;;;;;10450874;28;20045;-68
2020/12/04 08:12:23;;;;;;;13.05;7.32;;;6.70;96.40;;;;;;10451875;28;20440;-67
2020/12/04 08:17:30;;;;;;;8.85;6.70;;;6.80;96.00;;;;;;10451169;28;20088;-67
2020/12/04 08:22:33;;;;;;;13.75;7.50;;;6.80;95.80;;;;;;10451703;28;20038;-67
2020/12/04 08:27:43;;;;;;;10.93;7.03;;;7.00;95.70;;;;;;10452445;28;20144;-67
2020/12/04 08:32:46;;;;;;;11.07;6.60;;;7.00;95.30;;;;;;10450577;28;20455;-68
2020/12/04 08:37:49;;;;;;;9.25;5.85;;;7.00;95.60;;;;;;10451730;28;20484;-68
2020/12/04 08:42:51;;;;;;;9.07;6.07;;;7.20;95.40;;;;;;10452023;28;20045;-67
2020/12/04 08:47:53;;;;;;;8.98;5.70;;;7.40;94.80;;;;;;10451951;28;20049;-68
2020/12/04 08:52:55;;;;;;;9.25;5.30;;;7.40;95.10;;;;;;10451154;28;20493;-67
2020/12/04 08:57:57;;;;;;;8.70;5.28;;;7.40;94.90;;;;;;10451577;28;20087;-67
2020/12/04 09:03:00;;;;;;;13.60;5.20;;;7.50;94.90;;;;;;10451625;28;20076;-67
2020/12/04 09:08:01;;;;;;;9.85;4.90;;;7.50;95.20;;;;;;10451239;28;20083;-67
2020/12/04 09:13:04;;;;;;;7.72;4.55;;;7.70;95.00;;;;;;10452225;28;20072;-67
2020/12/04 09:18:06;;;;;;;6.65;4.07;;;7.80;94.90;;;;;;10452388;28;20079;-67
2020/12/04 09:23:07;;;;;;;13.50;3.90;;;7.90;95.00;;;;;;10458922;28;20048;-67
2020/12/04 09:28:09;;;;;;;5.45;3.42;;;8.00;95.10;;;;;;10458124;28;20060;-68
2020/12/04 09:33:10;;;;;;;7.88;3.08;;;8.00;94.70;;;;;;10458271;28;20123;-68
2020/12/04 09:38:14;;;;;;;5.40;3.33;;;8.10;94.40;;;;;;10458181;28;20045;-68
2020/12/04 09:43:16;;;;;;;41.58;7.78;;;8.30;94.60;;;;;;10458135;28;20084;-67
2020/12/04 09:48:29;;;;;;;5.55;3.50;;;8.50;94.20;;;;;;10457195;28;20041;-68
2020/12/04 09:53:31;;;;;;;8.48;3.05;;;8.90;93.90;;;;;;10457005;28;20481;-70
2020/12/04 09:58:32;;;;;;;4.45;2.72;;;9.00;93.30;;;;;;10456847;28;20102;-70
2020/12/04 10:03:33;;;;;;;3.65;2.53;;;9.00;92.70;;;;;;10456929;28;20429;-70
2020/12/04 10:08:35;;;;;;;9.85;2.92;;;9.30;92.50;;;;;;10456705;28;20080;-70
2020/12/04 10:13:36;;;;;;;38.58;4.47;;;9.40;92.50;;;;;;10457395;28;20068;-70
2020/12/04 10:18:41;;;;;;;6.15;2.67;;;9.60;92.40;;;;;;10455467;28;20103;-70
2020/12/04 10:23:42;;;;;;;4.38;2.65;;;9.80;91.40;;;;;;10455889;28;20049;-71
2020/12/04 10:28:44;;;;;;;4.40;2.13;;;9.90;91.80;;;;;;10454447;28;20084;-70
2020/12/04 10:33:45;;;;;;;5.18;2.58;;;9.80;91.00;;;;;;10454843;28;20056;-71
2020/12/04 10:38:47;;;;;;;8.85;2.92;;;9.60;90.70;;;;;;10454969;28;20080;-71
2020/12/04 10:43:49;;;;;;;4.30;2.65;;;9.70;91.70;;;;;;10454867;28;20552;-70
2020/12/04 10:48:51;;;;;;;5.47;2.97;;;9.70;91.40;;;;;;10453550;28;20053;-70
2020/12/04 10:53:52;;;;;;;4.07;2.60;;;9.70;91.30;;;;;;10439513;28;20099;-70
2020/12/04 10:58:54;;;;;;;4.50;2.75;;;9.60;91.20;;;;;;10444023;28;20057;-71
2020/12/04 11:08:57;;;;;;;6.40;3.08;;;9.40;91.60;;;;;;10455137;28;20132;-71
2020/12/04 11:13:58;;;;;;;4.55;3.17;;;9.40;91.50;;;;;;10442980;28;20056;-71
2020/12/04 11:19:03;;;;;;;4.65;2.88;;;9.40;91.40;;;;;;10445572;28;20564;-70
2020/12/04 11:24:05;;;;;;;4.60;3.13;;;9.30;91.30;;;;;;10439628;28;20456;-70
2020/12/04 11:29:08;;;;;;;4.60;2.92;;;9.30;91.40;;;;;;10434692;28;20049;-71
2020/12/04 11:34:09;;;;;;;6.13;3.17;;;9.30;91.00;;;;;;10440867;28;20489;-70
2020/12/04 11:39:12;;;;;;;4.45;3.13;;;9.30;90.80;;;;;;10441899;28;20076;-70
2020/12/04 11:44:13;;;;;;;5.13;3.58;;;9.30;90.80;;;;;;10444234;28;20048;-70
2020/12/04 11:49:15;;;;;;;6.68;3.83;;;9.20;90.60;;;;;;10446261;28;20568;-70
2020/12/04 11:54:16;;;;;;;8.60;4.13;;;9.20;90.80;;;;;;10440053;28;20477;-70
2020/12/04 11:59:18;;;;;;;6.35;4.00;;;9.20;90.90;;;;;;10446578;28;20485;-70
2020/12/04 12:04:20;;;;;;;6.15;4.38;;;9.10;90.70;;;;;;10441074;28;20508;-70
2020/12/04 12:09:22;;;;;;;9.68;4.40;;;9.20;90.50;;;;;;10444282;28;20127;-70
2020/12/04 12:14:23;;;;;;;7.25;4.30;;;9.10;90.30;;;;;;10437031;28;20068;-70
2020/12/04 12:19:24;;;;;;;5.63;3.70;;;9.10;90.60;;;;;;10444036;28;20140;-70
2020/12/04 12:24:26;;;;;;;9.30;4.95;;;9.10;90.60;;;;;;10447144;28;20056;-71
2020/12/04 12:29:28;;;;;;;6.90;4.07;;;9.30;90.70;;;;;;10441645;28;20091;-71
2020/12/04 12:39:50;;;;;;;7.43;4.35;;;9.40;89.70;;;;;;10442143;28;20144;-70
2020/12/04 12:44:51;;;;;;;6.68;4.07;;;9.40;89.80;;;;;;10444062;28;20045;-71
2020/12/04 12:49:53;;;;;;;6.70;4.38;;;9.40;89.40;;;;;;10443911;28;20107;-71
2020/12/04 12:54:54;;;;;;;5.90;3.85;;;9.40;89.40;;;;;;10445975;28;20497;-71
2020/12/04 12:59:56;;;;;;;6.82;3.65;;;9.40;89.60;;;;;;10449345;28;20040;-70
2020/12/04 13:04:57;;;;;;;6.00;3.45;;;9.40;90.30;;;;;;10452028;28;20081;-70
2020/12/04 13:09:58;;;;;;;5.88;3.33;;;9.40;90.20;;;;;;10452453;28;20045;-71
2020/12/04 13:15:00;;;;;;;4.50;2.83;;;9.40;90.20;;;;;;10448397;28;20064;-70
2020/12/04 13:20:01;;;;;;;5.85;3.00;;;9.50;90.60;;;;;;10460121;28;20127;-70
2020/12/04 13:25:04;;;;;;;8.95;2.65;;;9.50;90.50;;;;;;10451395;28;20494;-70
2020/12/04 13:30:06;;;;;;;4.65;2.72;;;9.50;90.70;;;;;;10443659;28;20095;-70
2020/12/04 13:35:08;;;;;;;8.77;3.05;;;9.50;90.90;;;;;;10453299;28;20053;-70
2020/12/04 13:40:10;;;;;;;5.40;2.50;;;9.50;90.90;;;;;;10448724;28;20673;-70
2020/12/04 13:45:13;;;;;;;5.28;2.70;;;9.40;90.80;;;;;;10453400;28;20447;-70
2020/12/04 13:50:15;;;;;;;3.63;2.10;;;9.40;91.40;;;;;;10447329;28;20056;-71
2020/12/04 13:55:17;;;;;;;3.95;2.20;;;9.40;91.10;;;;;;10447423;28;20049;-70
2020/12/04 14:00:18;;;;;;;3.47;2.30;;;9.30;91.20;;;;;;10444750;28;20041;-70
2020/12/04 14:05:20;;;;;;;3.78;2.28;;;9.40;91.60;;;;;;10446223;28;20316;-69
2020/12/04 14:10:21;;;;;;;5.53;2.60;;;9.30;91.60;;;;;;10448371;28;20080;-69
2020/12/04 14:15:23;;;;;;;4.85;2.60;;;9.20;91.80;;;;;;10444066;28;20065;-70
2020/12/04 14:20:24;;;;;;;4.45;2.90;;;9.30;92.00;;;;;;10450257;28;20060;-70
2020/12/04 14:25:26;;;;;;;3.90;2.40;;;9.10;92.10;;;;;;10451753;28;20072;-70
2020/12/04 14:30:27;;;;;;;7.90;6.20;;;9.10;92.20;;;;;;10454760;28;20068;-70
2020/12/04 14:35:29;;;;;;;4.50;2.05;;;9.10;92.30;;;;;;10455966;28;20044;-70
2020/12/04 14:40:31;;;;;;;4.43;1.70;;;9.00;92.20;;;;;;10445024;28;20485;-71
2020/12/04 14:45:33;;;;;;;3.40;1.80;;;9.00;92.10;;;;;;10447227;28;20093;-70
2020/12/04 14:50:34;;;;;;;4.05;1.70;;;8.90;92.20;;;;;;10446888;28;20189;-70
2020/12/04 14:55:36;;;;;;;5.32;1.90;;;8.80;92.60;;;;;;10444188;28;20160;-70
2020/12/04 15:00:37;;;;;;;3.70;1.65;;;8.80;92.90;;;;;;10446005;28;20041;-70
2020/12/04 15:05:40;;;;;;;3.17;1.75;;;8.80;92.80;;;;;;10455076;28;20046;-71
2020/12/04 15:10:42;;;;;;;5.82;2.25;;;8.80;92.60;;;;;;10453133;28;20041;-70
2020/12/04 15:15:45;;;;;;;4.97;1.70;;;8.80;92.70;;;;;;10453396;28;20053;-70
2020/12/04 15:20:47;;;;;;;8.65;2.60;;;8.80;92.70;;;;;;10454227;28;20129;-70
2020/12/04 15:25:49;;;;;;;8.50;4.97;;;8.70;92.80;;;;;;10454050;28;20072;-70
2020/12/04 15:30:51;;;;;;;15.63;7.45;;;8.80;92.90;;;;;;10453118;28;20583;-70
2020/12/04 15:35:52;;;;;;;14.32;6.15;;;8.70;93.00;;;;;;10453675;28;20099;-70
2020/12/04 15:40:54;;;;;;;3.90;2.05;;;8.70;93.00;;;;;;10452451;28;20462;-70
2020/12/04 15:45:55;;;;;;;5.75;2.05;;;8.70;93.00;;;;;;10452409;28;20040;-70
2020/12/04 15:50:56;;;;;;;3.35;2.10;;;8.70;92.90;;;;;;10453470;28;20056;-70
2020/12/04 15:55:59;;;;;;;3.75;2.13;;;8.60;92.80;;;;;;10452609;28;20049;-71
2020/12/04 16:01:01;;;;;;;5.90;2.90;;;8.70;92.80;;;;;;10451516;28;20077;-71
2020/12/04 16:06:03;;;;;;;5.72;4.03;;;8.60;92.80;;;;;;10452698;28;20180;-70
2020/12/04 16:11:04;;;;;;;3.58;2.00;;;8.50;92.80;;;;;;10451004;28;20040;-70
2020/12/04 16:16:06;;;;;;;2.80;1.90;;;8.50;92.60;;;;;;10451514;28;20405;-71
2020/12/04 16:21:07;;;;;;;5.53;2.17;;;8.40;92.80;;;;;;10452660;28;20084;-71
2020/12/04 16:26:09;;;;;;;3.40;2.10;;;8.50;92.90;;;;;;10452005;28;20103;-70
2020/12/04 16:31:17;;;;;;;5.70;3.90;;;8.60;92.50;;;;;;10450870;28;20056;-70
2020/12/04 16:36:20;;;;;;;4.30;2.97;;;8.70;92.60;;;;;;10452100;28;20486;-70
2020/12/04 16:41:22;;;;;;;5.30;3.40;;;8.50;92.80;;;;;;10451291;28;20072;-70
2020/12/04 16:46:23;;;;;;;5.70;2.70;;;8.50;93.10;;;;;;10451234;28;20114;-70
2020/12/04 16:51:25;;;;;;;4.13;2.40;;;8.40;93.20;;;;;;10451893;28;20045;-70
2020/12/04 16:56:26;;;;;;;4.10;2.47;;;8.40;93.40;;;;;;10425478;28;20059;-70
2020/12/04 17:01:28;;;;;;;4.80;2.67;;;8.30;93.50;;;;;;10424882;28;20476;-70
2020/12/04 17:06:30;;;;;;;5.38;2.40;;;8.30;93.60;;;;;;10447139;28;20565;-70
2020/12/04 17:11:31;;;;;;;5.85;2.67;;;8.30;93.60;;;;;;10443829;28;20429;-69
2020/12/04 17:16:34;;;;;;;4.85;3.33;;;8.40;93.50;;;;;;10437095;28;20333;-70
2020/12/04 17:21:35;;;;;;;4.85;3.15;;;8.40;93.50;;;;;;10436879;28;20481;-70
2020/12/04 17:26:37;;;;;;;5.05;3.10;;;8.40;93.40;;;;;;10440275;28;20052;-70
2020/12/04 17:31:38;;;;;;;6.22;3.80;;;8.40;93.50;;;;;;10445494;28;20467;-70
2020/12/04 17:36:40;;;;;;;6.57;4.45;;;8.30;93.80;;;;;;10440083;28;20049;-70
2020/12/04 17:41:45;;;;;;;6.13;3.55;;;8.30;93.80;;;;;;10433015;28;20508;-70
2020/12/04 17:46:47;;;;;;;7.20;3.30;;;8.30;93.80;;;;;;10444976;28;20045;-70
2020/12/04 17:51:50;;;;;;;4.65;3.30;;;8.30;93.80;;;;;;10448954;28;20044;-70
2020/12/04 17:56:52;;;;;;;6.85;3.80;;;8.30;93.90;;;;;;10449094;28;20120;-70
2020/12/04 18:01:54;;;;;;;5.35;3.40;;;8.30;93.90;;;;;;10437465;28;20408;-70
2020/12/04 18:06:55;;;;;;;6.05;4.40;;;8.20;93.90;;;;;;10439748;28;20308;-70
2020/12/04 18:11:57;;;;;;;7.28;4.88;;;8.10;94.30;;;;;;10448654;28;20081;-70
2020/12/04 18:16:59;;;;;;;7.82;5.45;;;8.00;94.40;;;;;;10442289;28;20094;-69
2020/12/04 18:22:00;;;;;;;8.25;5.50;;;7.90;94.80;;;;;;10442784;28;20501;-69
2020/12/04 18:27:03;;;;;;;7.03;4.25;;;7.80;94.90;;;;;;10443928;28;20128;-69
2020/12/04 18:32:04;;;;;;;6.88;4.47;;;7.80;95.30;;;;;;10443428;28;20048;-69
2020/12/04 18:37:06;;;;;;;6.53;4.40;;;7.80;95.30;;;;;;10447721;28;20080;-69
2020/12/04 18:42:08;;;;;;;9.20;5.75;;;7.90;95.30;;;;;;10442818;28;20064;-69
2020/12/04 18:47:10;;;;;;;13.60;6.90;;;7.90;95.20;;;;;;10450223;28;20080;-69
2020/12/04 18:52:20;;;;;;;10.45;6.22;;;7.90;95.30;;;;;;10444246;28;20065;-67
2020/12/04 18:57:21;;;;;;;9.75;7.20;;;7.90;95.20;;;;;;10448993;28;20136;-67
2020/12/04 19:02:22;;;;;;;11.27;7.40;;;7.90;95.10;;;;;;10436878;28;20494;-67
2020/12/04 19:07:24;;;;;;;8.98;5.93;;;7.90;95.30;;;;;;10441680;28;20068;-67
2020/12/04 19:12:26;;;;;;;9.98;6.22;;;7.70;95.90;;;;;;10449882;28;20345;-67
2020/12/04 19:17:29;;;;;;;10.85;7.70;;;7.80;95.90;;;;;;10445872;28;20519;-67
2020/12/04 19:22:31;;;;;;;16.45;9.65;;;7.60;95.90;;;;;;10433491;28;20466;-67
2020/12/04 19:27:32;;;;;;;11.38;8.77;;;7.60;96.00;;;;;;10435986;28;20524;-67
2020/12/04 19:32:34;;;;;;;12.18;8.65;;;7.60;96.10;;;;;;10442236;28;20045;-67
2020/12/04 19:37:37;;;;;;;14.80;9.77;;;7.60;96.40;;;;;;10439081;28;20080;-67
2020/12/04 19:42:39;;;;;;;13.13;9.02;;;7.70;96.50;;;;;;10442861;28;20073;-67
2020/12/04 19:47:41;;;;;;;13.38;9.07;;;7.80;96.40;;;;;;10437996;28;20124;-67
2020/12/04 19:52:44;;;;;;;10.25;6.97;;;7.80;96.30;;;;;;10438115;28;20510;-67
2020/12/04 19:57:45;;;;;;;14.85;8.02;;;7.80;96.30;;;;;;10430362;28;20129;-67
2020/12/04 20:02:47;;;;;;;13.30;10.68;;;7.80;96.10;;;;;;10442795;28;20462;-67
2020/12/04 20:07:48;;;;;;;19.63;13.43;;;7.80;96.00;;;;;;10444410;28;20135;-67
2020/12/04 20:12:50;;;;;;;24.60;16.52;;;7.50;96.30;;;;;;10444511;28;20053;-67
2020/12/04 20:17:52;;;;;;;24.05;16.30;;;7.30;96.00;;;;;;10437846;28;20124;-67
2020/12/04 20:22:53;;;;;;;28.52;18.00;;;7.10;96.20;;;;;;10441680;28;20125;-67
2020/12/04 20:27:57;;;;;;;28.08;17.73;;;7.00;95.70;;;;;;10444078;28;20069;-67
2020/12/04 20:32:59;;;;;;;28.00;18.50;;;7.00;95.70;;;;;;10442861;28;20110;-67
2020/12/04 20:38:00;;;;;;;30.50;19.58;;;7.10;95.20;;;;;;10443748;28;20124;-67
2020/12/04 20:43:02;;;;;;;30.13;19.42;;;6.90;94.80;;;;;;10461485;28;20065;-67
2020/12/04 20:48:03;;;;;;;28.75;18.80;;;6.80;94.10;;;;;;10444384;28;20135;-67
2020/12/04 20:53:05;;;;;;;28.70;18.95;;;6.70;94.50;;;;;;10441294;28;20521;-67
2020/12/04 20:58:06;;;;;;;29.92;20.38;;;6.90;94.20;;;;;;10438673;28;20081;-67
2020/12/04 21:03:08;;;;;;;31.30;19.60;;;7.00;93.80;;;;;;10438949;28;20124;-67
2020/12/04 21:08:09;;;;;;;33.15;20.08;;;6.80;93.70;;;;;;10436961;28;20471;-67
2020/12/04 21:13:11;;;;;;;33.17;19.60;;;6.80;93.60;;;;;;10443571;28;20045;-67
2020/12/04 21:18:12;;;;;;;30.50;19.38;;;6.70;93.30;;;;;;10436936;28;20056;-67
2020/12/04 21:23:14;;;;;;;29.13;19.48;;;6.80;93.90;;;;;;10453208;28;20051;-67
2020/12/04 21:28:16;;;;;;;30.25;19.02;;;6.90;93.40;;;;;;10457915;28;20095;-67
2020/12/04 21:33:17;;;;;;;31.27;18.58;;;6.90;93.20;;;;;;10456114;28;20053;-66
2020/12/04 21:38:21;;;;;;;30.63;19.60;;;6.80;93.80;;;;;;10440408;28;20493;-67
2020/12/04 21:43:23;;;;;;;29.80;19.67;;;6.70;93.30;;;;;;10457382;28;20049;-67
2020/12/04 21:48:25;;;;;;;30.92;19.85;;;6.70;93.30;;;;;;10456902;28;20448;-67
2020/12/04 21:53:26;;;;;;;29.90;19.95;;;6.70;92.90;;;;;;10456886;28;20059;-67
2020/12/04 21:58:28;;;;;;;32.35;20.42;;;6.70;92.50;;;;;;10456224;28;20092;-67
2020/12/04 22:03:32;;;;;;;29.80;20.65;;;6.70;92.40;;;;;;10447640;28;20045;-67
2020/12/04 22:08:34;;;;;;;32.15;20.80;;;6.70;91.90;;;;;;10455433;28;20056;-67
2020/12/04 22:13:36;;;;;;;29.08;19.42;;;6.80;91.80;;;;;;10455952;28;20515;-67
2020/12/04 22:18:37;;;;;;;29.23;19.40;;;6.70;91.80;;;;;;10456175;28;20049;-67
2020/12/04 22:23:39;;;;;;;29.48;19.92;;;6.60;92.10;;;;;;10469658;28;20140;-67
2020/12/04 22:28:41;;;;;;;29.50;19.98;;;6.50;91.90;;;;;;10455750;28;20056;-67
2020/12/04 22:33:43;;;;;;;30.00;19.67;;;6.50;91.60;;;;;;10455689;28;20045;-67
2020/12/04 22:38:46;;;;;;;32.03;20.45;;;6.40;91.80;;;;;;10454918;28;20053;-67
2020/12/04 22:43:50;;;;;;;29.48;19.55;;;6.30;91.80;;;;;;10455583;28;20052;-67
2020/12/04 22:48:52;;;;;;;31.30;19.50;;;6.50;91.90;;;;;;10454779;28;20464;-67
2020/12/04 22:53:53;;;;;;;31.25;19.42;;;6.50;91.90;;;;;;10453037;28;20493;-67
2020/12/04 22:58:55;;;;;;;31.33;19.77;;;6.50;92.30;;;;;;10454897;28;20130;-67
2020/12/04 23:03:57;;;;;;;31.52;19.30;;;6.60;92.10;;;;;;10454348;28;20041;-66
2020/12/04 23:08:58;;;;;;;31.50;20.13;;;6.60;91.90;;;;;;10454865;28;20118;-67
2020/12/04 23:14:00;;;;;;;28.30;18.80;;;6.60;91.80;;;;;;10454420;28;20068;-67
2020/12/04 23:19:01;;;;;;;33.80;20.38;;;6.70;92.50;;;;;;10454626;28;20115;-67
2020/12/04 23:24:03;;;;;;;31.02;19.48;;;6.80;92.30;;;;;;10454406;28;20041;-67
2020/12/04 23:29:04;;;;;;;31.25;19.70;;;6.90;92.30;;;;;;10454573;28;20059;-67
2020/12/04 23:34:06;;;;;;;30.52;19.75;;;7.00;92.10;;;;;;10453793;28;20064;-67
2020/12/04 23:39:07;;;;;;;33.53;21.15;;;7.00;92.40;;;;;;10468687;28;20128;-67
2020/12/04 23:44:09;;;;;;;32.15;20.45;;;6.90;92.00;;;;;;10453401;28;20073;-67
2020/12/04 23:49:11;;;;;;;28.63;19.35;;;7.00;92.10;;;;;;10453068;28;20132;-67
2020/12/04 23:54:12;;;;;;;32.17;20.42;;;7.10;92.50;;;;;;10454165;28;20080;-67
2020/12/04 23:59:13;;;;;;;30.15;20.83;;;7.10;92.70;;;;;;10451901;28;20095;-67
